LiveATC.Net - Listen to live air traffic control over the Internet! Contact for advertising information

ICAO: LTAF  IATA: ADA   Airport: Adana Airport
City: Adana
Country: Turkey   Continent: Asia
LTAF METAR Weather: LTAF 261650Z 03005KT 4900 HZ SCT035 BKN100 18/08 Q1014 BECMG TL1800 9999 NSW
LTAF Flight Activity (FlightAware)
LTAF Tower/Approach
Feed Status: UP   Listeners: 2
Listen right in your browser - requires Flash (in browser, requires Flash)
Click here to listen with your own player (launches your MP3 player)
LTAF Tower/Approach Audio Archives
Adana Approach118.300
Adana Tower121.100
Adana Tower131.100


Unauthorized use prohibited. See Terms of Service

Find LiveATC Audio Streams

Airport/ARTCC Code

(e.g., 124.400, 128.75)
Site-wide search

Browse LiveATC Feeds
LiveATC Coverage Map
Top 50 LiveATC Feeds
Bad Weather Areas

Offer a LiveATC Feed
Press Inquiries

LiveATC on iPhone
LiveATC on Android

Windows Phone
Windows 8/10

LiveATC Mobile
(Mobile browser)

ATC Audio Archives
Interesting Recordings

LiveATC Forums

Home Page
Make a Donation
LiveATC Bookstore

Terms of Use
Privacy Policy

ATC/Radar Sites
U.S. ARTCC Freqs
Canadian Air Freqs


FAA Airport Status
Nat'l Airspace Status
Arrival Demand Charts

Server Software By:

Please make a donation to help us keep growing!